Tiempo atmosférico en la estación meteorológica de Fresno De Sayago, Zamora (804 m.)



Fecha
DESCASC
Temp. máxima en grados centígrados (hora)
DESCASC
Temp. mínima en grados centígrados (hora)
DESCASC
Temp. media en grados centígrados
DESCASC
Racha de viento máxima en m/sg (hora)
DESCASC
Velocidad máxima media en intervalos de 10 minutos(hora)
DESCASC
Precipitaciones diarias en mm
DESCASC
Precipitaciones de 00:00 a 06:00 en mm
DESCASC
Precipitaciones de 06:00 a 12:00 en mm
DESCASC
Precipitaciones de 12:00 a 18:00 en mm
DESCASC
Precipitaciones de 18:00 a 24:00 en mm
DESCASC
10-07-2020 32.6 (18:20) 14 (07:10) 23.3 11.67 (20:00) 6.94 (23:59) 0 0 0 0 0
09-07-2020 33.5 (19:40) 14.4 (05:10) 23.9 12.78 (01:40) 7.5 (01:10) 0 0 0 0 0
08-07-2020 36.2 (15:20) 15.8 (07:10) 26 13.61 (20:50) 9.72 (21:00) 0.4 0 0 0 0.4
07-07-2020 34.4 (17:40) 12.3 (07:00) 23.4 11.94 (08:40) 8.89 (08:20) 0 0 0 0 0
06-07-2020 35.7 (19:00) 16 (00:00) 25.9 10.56 (07:40) 7.22 (09:40) 0 0 0 0 0
05-07-2020 34.6 (20:30) 12.2 (07:10) 23.4 9.72 (09:40) 6.67 (11:10) 0 0 0 0 0
04-07-2020 32 (18:50) 8.6 (07:10) 20.3 9.44 (09:40) 5.83 (10:40) 0 0 0 0 0
03-07-2020 28.8 (19:20) 9.5 (06:50) 19.1 10.28 (08:40) 7.5 (08:10) 0 0 0 0 0
02-07-2020 24.3 (18:40) 11.2 (00:00) 17.7 12.22 (16:20) 7.22 (17:50) 0 0 0 0 0
01-07-2020 28.3 (17:20) 14.6 (00:00) 21.4 15 (15:40) 7.78 (18:40) 0 0 0 0 0
30-06-2020 33.2 (17:20) 14.2 (00:00) 23.7 12.5 (15:40) 6.67 (09:20) 4.6 0 0 0 4.6
29-06-2020 32.2 (19:40) 10.5 (00:00) 21.4 7.22 (17:30) 4.72 (17:30) 0 0 0 0 0
28-06-2020 28 (17:50) 12.2 (00:00) 20.1 11.11 (17:40) 6.39 (20:30) 0 0 0 0 0
27-06-2020 24.6 (18:40) 12.7 (00:00) 18.7 10.28 (01:40) 5.83 (01:40) 0 0 0 0 0
26-06-2020 24.3 (18:50) 11.6 (00:00) 17.9 11.94 (18:00) 8.33 (20:30) 0 0 0 0 0
25-06-2020 28.8 (17:50) 14.2 (00:00) 21.5 11.67 (19:00) 8.06 (18:50) 0.2 0.2 0 0 0
24-06-2020 32.8 (15:30) 13.8 (00:00) 23.3 18.33 (16:10) 11.39 (16:10) 40.8 0 0 40.4 0.4
23-06-2020 35.5 (18:30) 13.4 (00:00) 24.4 10 (10:40) 6.39 (09:20) 0 0 0 0 0
22-06-2020 32.9 (18:40) 12.5 (00:00) 22.7 10.83 (02:00) 7.5 (03:20) 0 0 0 0 0
21-06-2020 29.4 (18:30) 8.1 (00:00) 18.8 10.28 (18:30) 5.56 (20:40) 0 0 0 0 0
20-06-2020 27.5 (18:20) 7.1 (00:00) 17.3 11.39 (17:40) 6.67 (17:40) 0 0 0 0 0
19-06-2020 25.5 (18:10) 4.7 (00:00) 15.1 9.72 (20:00) 5.83 (19:00) 0 0 0 0 0
18-06-2020 23.8 (18:00) 7.1 (05:40) 15.4 9.17 (16:30) 5.56 (20:20) 0 0 0 0 0
17-06-2020 22.4 (17:30) 6.4 (00:00) 14.4 8.33 (20:10) 6.11 (20:10) 0 0 0 0 0
16-06-2020 20.2 (18:00) 10.2 (00:00) 15.2 16.94 (16:40) 9.72 (16:40) 0 0 0 0 0
15-06-2020 20.3 (16:10) 9 (00:00) 14.6 11.39 (17:40) 7.5 (19:00) 0 0 0 0 0
14-06-2020 19.5 (16:40) 3.8 (00:00) 11.6 10.28 (16:00) 6.11 (19:30) 0 0 0 0 0
13-06-2020 17.6 (17:40) 4.9 (00:00) 11.3 12.5 (14:30) 8.61 (14:30) 0 0 0 0 0
12-06-2020 15.3 (18:40) 8 (00:00) 11.7 14.72 (10:40) 10 (10:40) 2.2 0 0.2 2 0

Gráficas

Temp. máximas Temp. mínimas Temp. medias Precipitaciones Rachas de viento máximas Velocidades máximas media en intervalos de 10 minutos

Datos horarios

Fecha y hora oficial Temperatura (ºC) Velocidad del viento (km/h) Dirección del viento Racha (km/h) Dirección de racha Precipitación (mm) Presión (hPa) Tendencia (hPa) Humedad (%)
2020-07-11 23:00:00 17.2 24 Oeste 53 Oeste 1.2 -- -- 87
2020-07-11 22:00:00 27.5 18 Norte 29 Norte 0 -- -- 33
2020-07-11 21:00:00 28 13 Nordeste 19 Nordeste 0 -- -- 33
2020-07-11 20:00:00 33 8 Nordeste 16 Nordeste 0 -- -- 25
2020-07-11 19:00:00 33.5 10 Norte 22 Sudeste 0 -- -- 25
2020-07-11 18:00:00 33.5 7 Sudeste 19 Este 0 -- -- 24
2020-07-11 17:00:00 32 12 Norte 22 Nordeste 0 -- -- 26
2020-07-11 16:00:00 31.5 11 Nordeste 30 Nordeste 0 -- -- 31
2020-07-11 15:00:00 29.7 17 Nordeste 31 Este 0 -- -- 36
2020-07-11 14:00:00 27.2 21 Nordeste 32 Nordeste 0 -- -- 42
2020-07-11 13:00:00 25.2 21 Nordeste 33 Nordeste 0 -- -- 46
2020-07-11 12:00:00 22.2 24 Nordeste 34 Nordeste 0 -- -- 51
2020-07-11 11:00:00 19.6 26 Nordeste 40 Nordeste 0 -- -- 59
2020-07-11 10:00:00 17.3 29 Nordeste 39 Nordeste 0 -- -- 65
2020-07-11 09:00:00 15.3 26 Nordeste 42 Nordeste 0 -- -- 73
2020-07-11 08:00:00 13.4 26 Nordeste 43 Nordeste 0 -- -- 81
2020-07-11 07:00:00 12.7 22 Nordeste 36 Nordeste 0 -- -- 86
2020-07-11 06:00:00 13.2 27 Nordeste 41 Nordeste 0 -- -- 87
2020-07-11 05:00:00 13.8 27 Nordeste 33 Nordeste 0 -- -- 85
2020-07-11 04:00:00 14.4 19 Nordeste 32 Nordeste 0 -- -- 83
2020-07-11 03:00:00 15.2 18 Nordeste 41 Nordeste 0 -- -- 81
2020-07-11 02:00:00 16.9 30 Nordeste 41 Nordeste 0 -- -- 76
2020-07-11 01:00:00 19.8 27 Nordeste 39 Este 0 -- -- 64
2020-07-11 00:00:00 22 25 Este 37 Nordeste 0 -- -- 58
2020-07-10 23:00:00 23.6 21 Nordeste 29 Nordeste 0 -- -- 54
2020-07-10 22:00:00 24.5 13 Nordeste 27 Nordeste 0 -- -- 45
2020-07-10 21:00:00 29.4 11 Nordeste 24 Nordeste 0 -- -- 31
2020-07-10 20:00:00 31.3 13 Norte 42 Este 0 -- -- 28
2020-07-10 19:00:00 31.5 13 Nordeste 26 Nordeste 0 -- -- 28
2020-07-10 18:00:00 31.7 14 Nordeste 24 Norte 0 -- -- 28
2020-07-10 17:00:00 31.3 12 Norte 20 Nordeste 0 -- -- 29
2020-07-10 16:00:00 31.2 12 Este 32 Nordeste 0 -- -- 30
2020-07-10 15:00:00 30 14 Este 29 Norte 0 -- -- 35
2020-07-10 14:00:00 27.3 19 Nordeste 29 Este 0 -- -- 41
2020-07-10 13:00:00 26.2 19 Nordeste 32 Nordeste 0 -- -- 46
2020-07-10 12:00:00 24.5 17 Nordeste 27 Nordeste 0 -- -- 50
2020-07-10 11:00:00 21.8 14 Nordeste 27 Nordeste 0 -- -- 61
2020-07-10 10:00:00 19.9 15 Nordeste 26 Este 0 -- -- 67
2020-07-10 09:00:00 17.2 19 Nordeste 27 Nordeste 0 -- -- 78
2020-07-10 08:00:00 15 12 Nordeste 19 Nordeste 0 -- -- 88
2020-07-10 07:00:00 14.2 14 Nordeste 24 Nordeste 0 -- -- 87
2020-07-10 06:00:00 14.2 6 Nordeste 12 Nordeste 0 -- -- 86
2020-07-10 05:00:00 15.2 8 Nordeste 24 Nordeste 0 -- -- 83
2020-07-10 04:00:00 16.8 20 Nordeste 28 Nordeste 0 -- -- 75
2020-07-10 03:00:00 17.5 17 Nordeste 24 Nordeste 0 -- -- 73
2020-07-10 02:00:00 18.8 21 Nordeste 34 Nordeste 0 -- -- 67
2020-07-10 01:00:00 19.7 16 Nordeste 26 Nordeste 0 -- -- 57
2020-07-10 00:00:00 20.8 8 Sudeste 15 Este 0 -- -- 53
2020-07-09 23:00:00 21.9 12 Este 26 Este 0 -- -- 48
2020-07-09 22:00:00 23.2 12 Sudoeste 27 Este 0 -- -- 46
2020-07-09 21:00:00 26.9 13 Este 39 Sudeste 0 -- -- 35
2020-07-09 20:00:00 31.6 14 Noroeste 26 Noroeste 0 -- -- 25
2020-07-09 19:00:00 32.8 12 Norte 24 Norte 0 -- -- 25
2020-07-09 18:00:00 30.2 11 Nordeste 24 Nordeste 0 -- -- 31
2020-07-09 17:00:00 31.9 13 Nordeste 27 Nordeste 0 -- -- 28
2020-07-09 16:00:00 32.8 12 Nordeste 26 Nordeste 0 -- -- 25
2020-07-09 15:00:00 30.8 11 Oeste 23 Oeste 0 -- -- 27
2020-07-09 14:00:00 29.9 8 Oeste 27 Oeste 0 -- -- 27
2020-07-09 13:00:00 29.3 10 Oeste 26 Oeste 0 -- -- 26
2020-07-09 12:00:00 26.9 5 Noroeste 13 Este 0 -- -- 37
2020-07-09 11:00:00 24.1 8 Nordeste 19 Nordeste 0 -- -- 50
2020-07-09 10:00:00 20.5 14 Nordeste 22 Nordeste 0 -- -- 62
2020-07-09 09:00:00 18 16 Nordeste 23 Nordeste 0 -- -- 72
2020-07-09 08:00:00 15.6 12 Nordeste 24 Nordeste 0 -- -- 82
2020-07-09 07:00:00 14.4 17 Nordeste 28 Nordeste 0 -- -- 85
2020-07-09 06:00:00 15 21 Nordeste 29 Nordeste 0 -- -- 80
2020-07-09 05:00:00 14.9 16 Nordeste 22 Nordeste 0 -- -- 78
2020-07-09 04:00:00 16 12 Nordeste 28 Nordeste 0 -- -- 71
2020-07-09 03:00:00 17.9 19 Nordeste 27 Este 0 -- -- 63
2020-07-09 02:00:00 18.4 20 Nordeste 46 Nordeste 0 -- -- 66
2020-07-09 01:00:00 19.2 23 Nordeste 33 Nordeste 0 -- -- 61
2020-07-09 00:00:00 19.9 27 Nordeste 40 Nordeste 0 -- -- 61
2020-07-08 23:00:00 21.5 26 Nordeste 37 Nordeste 0 -- -- 57
2020-07-08 22:00:00 21.8 20 Norte 40 Nordeste 0 -- -- 57
2020-07-08 21:00:00 24.5 35 Nordeste 49 Nordeste 0.4 -- -- 46
2020-07-08 20:00:00 31.2 15 Noroeste 28 Oeste 0 -- -- 24
2020-07-08 19:00:00 34.3 15 Sudoeste 36 Sudoeste 0 -- -- 15
2020-07-08 18:00:00 34.2 26 Sudoeste 42 Sudoeste 0 -- -- 17
2020-07-08 17:00:00 34.6 24 Sudoeste 41 Sudoeste 0 -- -- 17
2020-07-08 16:00:00 33.7 15 Oeste 35 Este 0 -- -- 21
2020-07-08 15:00:00 34.7 15 Nordeste 27 Nordeste 0 -- -- 22
2020-07-08 14:00:00 32.7 19 Nordeste 30 Nordeste 0 -- -- 26
2020-07-08 13:00:00 30.5 17 Nordeste 24 Este 0 -- -- 29
2020-07-08 12:00:00 27.5 18 Nordeste 30 Nordeste 0 -- -- 35
2020-07-08 11:00:00 24.1 24 Nordeste 33 Nordeste 0 -- -- 42
2020-07-08 10:00:00 21 22 Nordeste 31 Nordeste 0 -- -- 51
2020-07-08 09:00:00 18.4 21 Nordeste 27 Nordeste 0 -- -- 60
2020-07-08 08:00:00 16.3 17 Nordeste 32 Nordeste 0 -- -- 67
2020-07-08 07:00:00 15.9 15 Nordeste 29 Nordeste 0 -- -- 67
2020-07-08 06:00:00 16.5 16 Nordeste 26 Nordeste 0 -- -- 64
2020-07-08 05:00:00 17.6 14 Nordeste 22 Nordeste 0 -- -- 53
2020-07-08 04:00:00 20.3 8 Norte 22 Noroeste 0 -- -- 39
2020-07-08 03:00:00 20.8 3 Este 7 Este 0 -- -- 36
2020-07-08 02:00:00 19.1 5 Sudeste 11 Sur 0 -- -- 49
2020-07-08 01:00:00 21.1 4 Este 7 Este 0 -- -- 39
2020-07-08 00:00:00 20.9 5 Este 8 Este 0 -- -- 46
2020-07-07 23:00:00 22.8 4 Nordeste 5 Nordeste 0 -- -- 39
2020-07-07 22:00:00 25.2 4 Nordeste 8 Noroeste 0 -- -- 34
2020-07-07 21:00:00 32.1 7 Oeste 22 Oeste 0 -- -- 22
2020-07-07 20:00:00 33.5 16 Noroeste 34 Oeste 0 -- -- 17
2020-07-07 19:00:00 33.5 23 Oeste 34 Oeste 0 -- -- 17
2020-07-07 18:00:00 33.8 21 Oeste 35 Oeste 0 -- -- 17
2020-07-07 17:00:00 33.5 16 Oeste 31 Oeste 0 -- -- 22
2020-07-07 16:00:00 33.1 9 Noroeste 22 Oeste 0 -- -- 23
2020-07-07 15:00:00 32.5 6 Sur 18 Sur 0 -- -- 28
2020-07-07 14:00:00 29.3 5 Norte 19 Nordeste 0 -- -- 34
2020-07-07 13:00:00 26.9 13 Nordeste 27 Nordeste 0 -- -- 37
2020-07-07 12:00:00 23.7 17 Nordeste 26 Nordeste 0 -- -- 43
2020-07-07 11:00:00 20.6 19 Nordeste 35 Nordeste 0 -- -- 47
2020-07-07 10:00:00 17.4 25 Nordeste 34 Nordeste 0 -- -- 56
2020-07-07 09:00:00 14.9 26 Nordeste 43 Nordeste 0 -- -- 64
2020-07-07 08:00:00 13.3 29 Nordeste 38 Nordeste 0 -- -- 71
2020-07-07 07:00:00 12.3 22 Nordeste 35 Nordeste 0 -- -- 77
2020-07-07 06:00:00 13 27 Nordeste 41 Nordeste 0 -- -- 75
2020-07-07 05:00:00 13.7 27 Nordeste 36 Nordeste 0 -- -- 75
2020-07-07 04:00:00 14.7 22 Nordeste 33 Nordeste 0 -- -- 74
2020-07-07 03:00:00 16.2 22 Nordeste 30 Nordeste 0 -- -- 70
2020-07-07 02:00:00 18.4 21 Nordeste 33 Nordeste 0 -- -- 60
2020-07-07 01:00:00 20.3 21 Nordeste 28 Nordeste 0 -- -- 50
2020-07-07 00:00:00 22 22 Nordeste 37 Este 0 -- -- 49
2020-07-06 23:00:00 24.3 23 Este 35 Este 0 -- -- 44
2020-07-06 22:00:00 26.4 21 Nordeste 32 Nordeste 0 -- -- 43
2020-07-06 21:00:00 30.5 13 Nordeste 23 Nordeste 0 -- -- 35
2020-07-06 20:00:00 32.9 12 Nordeste 18 Nordeste 0 -- -- 30
2020-07-06 19:00:00 35.7 3 Este 13 Nordeste 0 -- -- 25
2020-07-06 18:00:00 33.1 9 Norte 21 Nordeste 0 -- -- 27
2020-07-06 17:00:00 33.4 6 Sur 18 Norte 0 -- -- 29
2020-07-06 16:00:00 32.4 6 Nordeste 32 Nordeste 0 -- -- 32
2020-07-06 15:00:00 31.3 14 Nordeste 28 Norte 0 -- -- 35
2020-07-06 14:00:00 30.1 19 Nordeste 31 Nordeste 0 -- -- 37
2020-07-06 13:00:00 28.3 21 Nordeste 30 Nordeste 0 -- -- 39
2020-07-06 12:00:00 25.6 19 Nordeste 36 Este 0 -- -- 46
2020-07-06 11:00:00 23.3 23 Nordeste 34 Nordeste 0 -- -- 52
2020-07-06 10:00:00 21.6 25 Nordeste 34 Nordeste 0 -- -- 56
2020-07-06 09:00:00 19.6 22 Nordeste 31 Nordeste 0 -- -- 67
2020-07-06 08:00:00 16.9 24 Nordeste 38 Nordeste 0 -- -- 78
2020-07-06 07:00:00 16 23 Nordeste 30 Nordeste 0 -- -- 81
2020-07-06 06:00:00 16.6 20 Nordeste 28 Nordeste 0 -- -- 80
2020-07-06 05:00:00 17.6 20 Nordeste 26 Nordeste 0 -- -- 77
2020-07-06 04:00:00 18.9 16 Nordeste 27 Nordeste 0 -- -- 75
2020-07-06 03:00:00 20.5 21 Nordeste 29 Nordeste 0 -- -- 65
2020-07-06 02:00:00 22.1 17 Nordeste 23 Nordeste 0 -- -- 52
2020-07-06 01:00:00 18.9 3 Este 5 Este 0 -- -- 66
2020-07-06 00:00:00 21.5 3 Nordeste 5 Nordeste 0 -- -- 53
2020-07-05 23:00:00 23 5 Nordeste 8 Nordeste 0 -- -- 49
2020-07-05 22:00:00 27.6 8 Norte 9 Norte 0 -- -- 35
2020-07-05 21:00:00 31.3 8 Nordeste 20 Nordeste 0 -- -- 29
2020-07-05 20:00:00 33.2 9 Nordeste 16 Nordeste 0 -- -- 24
2020-07-05 19:00:00 33.4 9 Sudeste 19 Este 0 -- -- 22
2020-07-05 18:00:00 33 6 Norte 15 Noroeste 0 -- -- 22
2020-07-05 17:00:00 33.1 8 Sudeste 20 Nordeste 0 -- -- 21
2020-07-05 16:00:00 32.2 7 Noroeste 16 Noroeste 0 -- -- 20
2020-07-05 15:00:00 31.8 9 Nordeste 26 Nordeste 0 -- -- 23
2020-07-05 14:00:00 30.7 13 Nordeste 30 Este 0 -- -- 26
2020-07-05 13:00:00 29 19 Este 33 Nordeste 0 -- -- 32
2020-07-05 12:00:00 26.6 22 Nordeste 31 Nordeste 0 -- -- 37
2020-07-05 11:00:00 23.6 22 Nordeste 28 Nordeste 0 -- -- 43
2020-07-05 10:00:00 20.4 22 Nordeste 35 Nordeste 0 -- -- 52
2020-07-05 09:00:00 17.4 19 Nordeste 31 Nordeste 0 -- -- 63
2020-07-05 08:00:00 14.9 12 Nordeste 16 Nordeste 0 -- -- 72
2020-07-05 07:00:00 12.4 8 Nordeste 14 Nordeste 0 -- -- 77
2020-07-05 06:00:00 12.9 9 Nordeste 15 Nordeste 0 -- -- 76
2020-07-05 05:00:00 12.7 12 Nordeste 18 Nordeste 0 -- -- 76
2020-07-05 04:00:00 14.3 9 Nordeste 14 Nordeste 0 -- -- 64
2020-07-05 03:00:00 14.3 12 Nordeste 21 Nordeste 0 -- -- 64
2020-07-05 02:00:00 14.7 13 Nordeste 18 Nordeste 0 -- -- 64
2020-07-05 01:00:00 18 9 Este 12 Este 0 -- -- 52
2020-07-05 00:00:00 18.2 9 Este 10 Este 0 -- -- 51
2020-07-04 23:00:00 19.3 8 Nordeste -- -- 0 -- -- 51
2020-07-04 22:00:00 23.4 5 Nordeste 11 Nordeste 0 -- -- 38
2020-07-04 21:00:00 27.2 6 Este 15 Nordeste 0 -- -- 33
2020-07-04 20:00:00 28.4 9 Nordeste 18 Norte 0 -- -- 26
2020-07-04 19:00:00 32 6 Nordeste 19 Norte 0 -- -- 19
2020-07-04 18:00:00 30.7 10 Norte 21 Norte 0 -- -- 19
2020-07-04 17:00:00 31.1 4 Nordeste 18 Nordeste 0 -- -- 19
2020-07-04 16:00:00 29.7 6 Este 20 Norte 0 -- -- 20
2020-07-04 15:00:00 28.7 5 Norte 23 Norte 0 -- -- 25
2020-07-04 14:00:00 27.9 10 Nordeste 22 Nordeste 0 -- -- 27
2020-07-04 13:00:00 25.9 12 Este 23 Este 0 -- -- 32
2020-07-04 12:00:00 23.4 15 Este 26 Este 0 -- -- 37
2020-07-04 11:00:00 20.3 20 Nordeste 34 Nordeste 0 -- -- 42
2020-07-04 10:00:00 17.3 20 Nordeste 34 Nordeste 0 -- -- 55
2020-07-04 09:00:00 14.2 19 Nordeste 26 Nordeste 0 -- -- 71
2020-07-04 08:00:00 11.7 14 Nordeste 21 Nordeste 0 -- -- 81
2020-07-04 07:00:00 8.7 13 Nordeste 23 Nordeste 0 -- -- 83
2020-07-04 06:00:00 9.3 17 Nordeste 21 Nordeste 0 -- -- 78
2020-07-04 05:00:00 10.9 12 Nordeste 20 Nordeste 0 -- -- 67
2020-07-04 04:00:00 11.8 15 Este 22 Nordeste 0 -- -- 66
2020-07-04 03:00:00 11.2 13 Nordeste 15 Nordeste 0 -- -- 71
2020-07-04 02:00:00 15.9 6 Noroeste 12 Noroeste 0 -- -- 51
2020-07-04 01:00:00 16.1 3 Este 9 Este 0 -- -- 48
2020-07-04 00:00:00 17 4 Este 10 Este 0 -- -- 46
2020-07-03 23:00:00 17.1 9 Este 11 Este 0 -- -- 50
2020-07-03 22:00:00 21.8 9 Nordeste 11 Nordeste 0 -- -- 33
2020-07-03 21:00:00 26.4 6 Norte 15 Nordeste 0 -- -- 27
2020-07-03 20:00:00 27.6 7 Nordeste 18 Nordeste 0 -- -- 22
2020-07-03 19:00:00 27.7 10 Nordeste 23 Norte 0 -- -- 23
2020-07-03 18:00:00 27 10 Nordeste 22 Nordeste 0 -- -- 25
2020-07-03 17:00:00 26.6 8 Norte 25 Nordeste 0 -- -- 24
2020-07-03 16:00:00 25.8 9 Nordeste 24 Nordeste 0 -- -- 32
2020-07-03 15:00:00 24.5 11 Nordeste 27 Nordeste 0 -- -- 32
2020-07-03 14:00:00 23.2 8 Este 28 Nordeste 0 -- -- 40
2020-07-03 13:00:00 20.7 15 Nordeste 32 Nordeste 0 -- -- 50
2020-07-03 12:00:00 18.7 21 Nordeste 31 Este 0 -- -- 56
2020-07-03 11:00:00 16.6 22 Nordeste 31 Nordeste 0 -- -- 64
2020-07-03 10:00:00 13.9 23 Nordeste 34 Nordeste 0 -- -- 72
2020-07-03 09:00:00 11.9 26 Nordeste 37 Nordeste 0 -- -- 80
2020-07-03 08:00:00 10.5 24 Nordeste 36 Nordeste 0 -- -- 86
2020-07-03 07:00:00 9.5 23 Nordeste 37 Nordeste 0 -- -- 90
2020-07-03 06:00:00 9.6 20 Nordeste 28 Nordeste 0 -- -- 90
2020-07-03 05:00:00 10.1 19 Nordeste 30 Nordeste 0 -- -- 88
2020-07-03 04:00:00 10.7 19 Nordeste 29 Nordeste 0 -- -- 85
2020-07-03 03:00:00 11.5 21 Nordeste 32 Nordeste 0 -- -- 80
2020-07-03 02:00:00 12.3 18 Nordeste 28 Nordeste 0 -- -- 77
2020-07-03 01:00:00 13.5 19 Nordeste 30 Nordeste 0 -- -- 75
2020-07-03 00:00:00 14.4 8 Norte 13 Noroeste 0 -- -- 62
2020-07-02 23:00:00 15.8 7 Noroeste 19 Oeste 0 -- -- 55
2020-07-02 22:00:00 18.2 14 Oeste 27 Noroeste 0 -- -- 48
2020-07-02 21:00:00 21.8 18 Noroeste 33 Oeste 0 -- -- 39
2020-07-02 20:00:00 22.9 22 Noroeste 40 Noroeste 0 -- -- 37
2020-07-02 19:00:00 23.9 20 Noroeste 37 Oeste 0 -- -- 36
2020-07-02 18:00:00 23.8 23 Oeste 41 Oeste 0 -- -- 33
2020-07-02 17:00:00 23.7 19 Oeste 44 Oeste 0 -- -- 37
2020-07-02 16:00:00 22.5 24 Oeste 36 Oeste 0 -- -- 41
2020-07-02 15:00:00 21.7 21 Oeste 39 Oeste 0 -- -- 44
2020-07-02 14:00:00 21.3 18 Oeste 32 Oeste 0 -- -- 48
2020-07-02 13:00:00 20.3 16 Oeste 38 Oeste 0 -- -- 55
2020-07-02 12:00:00 19.3 15 Oeste 26 Sudoeste 0 -- -- 62
2020-07-02 11:00:00 17.5 17 Oeste 29 Oeste 0 -- -- 68
2020-07-02 10:00:00 17.4 11 Noroeste 24 Noroeste 0 -- -- 70
2020-07-02 09:00:00 16 12 Oeste 21 Noroeste 0 -- -- 78
2020-07-02 08:00:00 14.1 3 Sudoeste 6 Sudoeste 0 -- -- 85
2020-07-02 07:00:00 11.6 4 Sudoeste 8 Oeste 0 -- -- 92
2020-07-02 06:00:00 12.1 5 Sudoeste 8 Sur 0 -- -- 92
2020-07-02 05:00:00 12.8 6 Sudoeste 8 Sudoeste 0 -- -- 89
2020-07-02 04:00:00 13 2 Sudoeste 9 Oeste 0 -- -- 87
2020-07-02 03:00:00 13 2 Sudoeste 10 Oeste 0 -- -- 85
2020-07-02 02:00:00 15.6 9 Oeste 11 Oeste 0 -- -- 76
2020-07-02 01:00:00 16.9 5 Noroeste 14 Oeste 0 -- -- 74
2020-07-02 00:00:00 18.5 12 Noroeste 22 Noroeste 0 -- -- 69
2020-07-01 23:00:00 20.2 14 Noroeste 23 Noroeste 0 -- -- 62
2020-07-01 22:00:00 22.1 15 Oeste 28 Oeste 0 -- -- 51
2020-07-01 21:00:00 25.4 21 Oeste 40 Oeste 0 -- -- 38
2020-07-01 20:00:00 26.9 24 Oeste 39 Oeste 0 -- -- 33
2020-07-01 19:00:00 27.7 27 Oeste 42 Oeste 0 -- -- 33
2020-07-01 18:00:00 28.2 23 Oeste 41 Oeste 0 -- -- 33
2020-07-01 17:00:00 27.7 24 Oeste 40 Oeste 0 -- -- 34
2020-07-01 16:00:00 27.3 26 Oeste 54 Oeste 0 -- -- 32
2020-07-01 15:00:00 27 26 Oeste 39 Oeste 0 -- -- 35
2020-07-01 14:00:00 26.7 20 Oeste 36 Oeste 0 -- -- 41
2020-07-01 13:00:00 25.7 18 Oeste 31 Noroeste 0 -- -- 45
2020-07-01 12:00:00 23.7 20 Oeste 32 Oeste 0 -- -- 53
2020-07-01 11:00:00 21.4 16 Oeste 26 Oeste 0 -- -- 68
2020-07-01 10:00:00 19.7 16 Oeste 32 Sudoeste 0 -- -- 80
2020-07-01 09:00:00 18 14 Oeste 21 Oeste 0 -- -- 88
2020-07-01 08:00:00 16.4 8 Sudoeste 10 Sudoeste 0 -- -- --
2020-07-01 07:00:00 14.6 5 Sudoeste 9 Sudoeste 0 -- -- --
2020-07-01 06:00:00 15.1 8 Sudoeste 12 Sur 0 -- -- --
2020-07-01 05:00:00 15.6 9 Sudoeste 11 Sudoeste 0 -- -- --
2020-07-01 04:00:00 16.6 7 Sur 12 Sudoeste 0 -- -- --
2020-07-01 03:00:00 17.9 9 Sudoeste 12 Sudoeste 0 -- -- --
2020-07-01 02:00:00 19 7 Sudoeste 11 Oeste 0 -- -- --
2020-07-01 01:00:00 21.2 7 Noroeste 12 Noroeste 0 -- -- --
2020-07-01 00:00:00 22.8 8 Noroeste 17 Sudeste 0 -- -- --
2020-06-30 23:00:00 22.1 11 Sudeste 31 Sudoeste 4.6 -- -- --
2020-06-30 22:00:00 26.5 17 Oeste 32 Noroeste 0 -- -- --
2020-06-30 21:00:00 29.7 17 Oeste 33 Oeste 0 -- -- --
2020-06-30 20:00:00 31.8 24 Oeste 37 Oeste 0 -- -- --
2020-06-30 19:00:00 32.4 21 Oeste 36 Oeste 0 -- -- --
2020-06-30 18:00:00 32.6 19 Oeste 33 Oeste 0 -- -- --
2020-06-30 17:00:00 32.7 19 Sudoeste 37 Sudoeste 0 -- -- --
2020-06-30 16:00:00 31.9 17 Oeste 45 Oeste 0 -- -- --
2020-06-30 15:00:00 31.6 12 Sudoeste 33 Sudoeste 0 -- -- --
2020-06-30 14:00:00 30.4 5 Sudoeste 17 Sudoeste 0 -- -- --
2020-06-30 13:00:00 28.7 10 Este 27 Nordeste 0 -- -- --
2020-06-30 12:00:00 25.5 18 Nordeste 27 Nordeste 0 -- -- --
2020-06-30 11:00:00 22.8 19 Nordeste 28 Nordeste 0 -- -- --
2020-06-30 10:00:00 19.9 21 Nordeste 31 Nordeste 0 -- -- --
2020-06-30 09:00:00 17.3 22 Nordeste 36 Nordeste 0 -- -- --
2020-06-30 08:00:00 14.9 21 Nordeste 30 Nordeste 0 -- -- --
2020-06-30 07:00:00 14.2 22 Nordeste 36 Nordeste 0 -- -- --
2020-06-30 06:00:00 15.3 19 Nordeste 26 Nordeste 0 -- -- --
2020-06-30 05:00:00 15.8 15 Nordeste 26 Nordeste 0 -- -- --
2020-06-30 04:00:00 16.3 13 Nordeste 21 Nordeste 0 -- -- --
2020-06-30 03:00:00 15.8 11 Nordeste 17 Nordeste 0 -- -- --
2020-06-30 02:00:00 17.5 9 Nordeste 13 Nordeste 0 -- -- --
2020-06-30 01:00:00 18.2 8 Nordeste 13 Norte 0 -- -- --
2020-06-30 00:00:00 21.6 8 Norte 13 Norte 0 -- -- --
2020-06-29 23:00:00 22.5 9 Norte 11 Norte 0 -- -- --
2020-06-29 22:00:00 25.4 8 Norte 15 Noroeste 0 -- -- --
2020-06-29 21:00:00 29.5 9 Norte 16 Noroeste 0 -- -- --
2020-06-29 20:00:00 31.7 6 Noroeste 14 Noroeste 0 -- -- --
2020-06-29 19:00:00 31.1 9 Noroeste 24 Oeste 0 -- -- --
2020-06-29 18:00:00 30.4 10 Oeste 26 Oeste 0 -- -- --
2020-06-29 17:00:00 30.8 5 Norte 20 Oeste 0 -- -- --
2020-06-29 16:00:00 29.2 5 Oeste 17 Norte 0 -- -- --
2020-06-29 15:00:00 27.9 8 Norte 17 Norte 0 -- -- --
2020-06-29 14:00:00 27.1 5 Nordeste 13 Noroeste 0 -- -- --
2020-06-29 13:00:00 24.5 9 Noroeste 15 Noroeste 0 -- -- --
2020-06-29 12:00:00 23.4 6 Noroeste 16 Noroeste 0 -- -- --
2020-06-29 11:00:00 21.6 9 Nordeste 15 Nordeste 0 -- -- --
2020-06-29 10:00:00 19.3 9 Este 16 Nordeste 0 -- -- --
2020-06-29 09:00:00 17.3 8 Norte 11 Norte 0 -- -- --
2020-06-29 08:00:00 14.8 3 Nordeste 6 Sudeste 0 -- -- --
2020-06-29 07:00:00 10.5 4 Sudeste 7 Este 0 -- -- --
2020-06-29 06:00:00 12.2 0 Calma 5 Oeste 0 -- -- --
2020-06-29 05:00:00 12.5 5 Este 11 Nordeste 0 -- -- --
2020-06-29 04:00:00 13.5 0 Calma 6 Sudeste 0 -- -- --
2020-06-29 03:00:00 13.4 0 Calma 9 Oeste 0 -- -- --
2020-06-29 02:00:00 15.4 0 Calma 8 Oeste 0 -- -- --
2020-06-29 01:00:00 17.2 5 Noroeste 13 Noroeste 0 -- -- --
2020-06-29 00:00:00 18.7 6 Noroeste 13 Oeste 0 -- -- --
2020-06-28 23:00:00 20.2 9 Noroeste 22 Noroeste 0 -- -- --
2020-06-28 22:00:00 22.3 13 Noroeste 30 Oeste 0 -- -- --
2020-06-28 21:00:00 25.1 19 Oeste 31 Oeste 0 -- -- --
2020-06-28 20:00:00 27 18 Noroeste 36 Noroeste 0 -- -- --
2020-06-28 19:00:00 27.3 21 Oeste 36 Oeste 0 -- -- --
2020-06-28 18:00:00 27.9 16 Oeste 40 Oeste 0 -- -- --
2020-06-28 17:00:00 27.9 14 Oeste 32 Oeste 0 -- -- --
2020-06-28 16:00:00 27.6 14 Oeste 28 Noroeste 0 -- -- --
2020-06-28 15:00:00 26.3 14 Oeste 25 Oeste 0 -- -- --
2020-06-28 14:00:00 25 9 Oeste 30 Noroeste 0 -- -- --
2020-06-28 13:00:00 23.7 10 Oeste 24 Noroeste 0 -- -- --
2020-06-28 12:00:00 21.7 9 Noroeste 20 Oeste 0 -- -- --
2020-06-28 11:00:00 19.9 11 Noroeste 21 Oeste 0 -- -- --
2020-06-28 10:00:00 17.9 11 Oeste 18 Oeste 0 -- -- --
2020-06-28 09:00:00 16 9 Sudoeste 13 Sudoeste 0 -- -- --
2020-06-28 08:00:00 14.2 6 Sudoeste 8 Sudoeste 0 -- -- --
2020-06-28 07:00:00 12.5 5 Sudoeste 11 Sudoeste 0 -- -- --
2020-06-28 06:00:00 12.6 4 Sudoeste 8 Sudoeste 0 -- -- --
2020-06-28 05:00:00 12.6 4 Sur 9 Sudoeste 0 -- -- --
2020-06-28 04:00:00 14.1 5 Sudoeste 15 Oeste 0.2 -- -- --
2020-06-28 03:00:00 13.7 5 Sudoeste 11 Oeste 0 -- -- --
2020-06-28 02:00:00 15.3 9 Oeste 12 Oeste 0 -- -- --
2020-06-28 01:00:00 15.9 7 Noroeste 13 Oeste 0 -- -- --
2020-06-28 00:00:00 17.5 12 Oeste 21 Oeste 0 -- -- --
2020-06-27 23:00:00 18.5 15 Oeste 17 Oeste 0 -- -- --
2020-06-27 22:00:00 19.9 9 Oeste 23 Noroeste 0 -- -- --
2020-06-27 21:00:00 23.7 15 Noroeste 29 Noroeste 0 -- -- --
2020-06-27 20:00:00 24.1 16 Oeste 28 Oeste 0 -- -- --
2020-06-27 19:00:00 24 18 Oeste 31 Oeste 0 -- -- --
2020-06-27 18:00:00 24 19 Oeste 33 Oeste 0 -- -- --
2020-06-27 17:00:00 23.7 17 Oeste 34 Oeste 0 -- -- --
2020-06-27 16:00:00 22.8 16 Noroeste 33 Oeste 0 -- -- --
2020-06-27 15:00:00 22.5 18 Oeste 37 Oeste 0 -- -- --
2020-06-27 14:00:00 21.2 17 Oeste 33 Oeste 0 -- -- --
2020-06-27 13:00:00 20.7 17 Oeste 26 Oeste 0 -- -- --
2020-06-27 12:00:00 18.8 9 Oeste 21 Sudoeste 0 -- -- --
2020-06-27 11:00:00 17.8 12 Oeste 26 Oeste 0 -- -- --
2020-06-27 10:00:00 15.9 12 Oeste 20 Oeste 0 -- -- --
2020-06-27 09:00:00 15.5 12 Sudoeste 17 Sudoeste 0 -- -- --
2020-06-27 08:00:00 14.9 9 Sudoeste 17 Sudoeste 0 -- -- --
2020-06-27 07:00:00 14.6 9 Oeste 17 Sudoeste 0 -- -- --
2020-06-27 06:00:00 14.1 10 Oeste 16 Oeste 0 -- -- --
2020-06-27 05:00:00 12.8 10 Sudoeste 15 Sudoeste 0 -- -- --
2020-06-27 04:00:00 12.7 4 Sur 20 Oeste 0 -- -- --
2020-06-27 03:00:00 13.7 12 Oeste 26 Oeste 0 -- -- --
2020-06-27 02:00:00 15.2 15 Oeste 37 Oeste 0 -- -- --
2020-06-27 01:00:00 15.9 16 Oeste 28 Noroeste 0 -- -- --
2020-06-27 00:00:00 16.3 17 Oeste 22 Oeste 0 -- -- --
2020-06-26 23:00:00 17.8 15 Oeste 30 Oeste 0 -- -- --
2020-06-26 22:00:00 19.6 18 Oeste 36 Oeste 0 -- -- --
2020-06-26 21:00:00 22 25 Oeste 39 Oeste 0 -- -- --
2020-06-26 20:00:00 23.3 28 Oeste 39 Oeste 0 -- -- --
2020-06-26 19:00:00 24 24 Oeste 37 Oeste 0 -- -- --
2020-06-26 18:00:00 23.6 25 Oeste 43 Oeste 0 -- -- --
2020-06-26 17:00:00 23.9 21 Oeste 35 Sudoeste 0 -- -- --
2020-06-26 16:00:00 23.4 23 Oeste 35 Oeste 0 -- -- --
2020-06-26 15:00:00 22.4 21 Oeste 38 Oeste 0 -- -- --
2020-06-26 14:00:00 21.7 21 Sudoeste 31 Sudoeste 0 -- -- --
2020-06-26 13:00:00 19.3 19 Sudoeste 33 Oeste 0 -- -- --
2020-06-26 12:00:00 16.6 23 Oeste 35 Oeste 0 -- -- --
2020-06-26 11:00:00 15.4 14 Sudoeste 23 Sudoeste 0 -- -- --
2020-06-26 10:00:00 15.1 17 Oeste 23 Oeste 0 -- -- --
2020-06-26 09:00:00 13.6 19 Oeste 29 Oeste 0 -- -- --
2020-06-26 08:00:00 13 13 Oeste 22 Oeste 0 -- -- --
2020-06-26 07:00:00 11.7 10 Sudoeste 15 Sudoeste 0 -- -- --
2020-06-26 06:00:00 11.9 9 Sudoeste 15 Sudoeste 0 -- -- --
2020-06-26 05:00:00 13.3 13 Sudoeste 15 Sudoeste 0 -- -- --
2020-06-26 04:00:00 13.6 6 Sur 13 Sudoeste 0 -- -- --
2020-06-26 03:00:00 14.7 6 Sudoeste 17 Sudoeste 0 -- -- --
2020-06-26 02:00:00 16.1 6 Sudoeste 15 Oeste 0 -- -- --
2020-06-26 01:00:00 17.2 12 Oeste 15 Oeste 0 -- -- --
2020-06-26 00:00:00 18.5 3 Sudoeste 17 Oeste 0 -- -- --
2020-06-25 23:00:00 20.8 13 Oeste 18 Oeste 0 -- -- --
2020-06-25 22:00:00 23.1 11 Oeste 22 Oeste 0 -- -- --
2020-06-25 21:00:00 26.5 17 Oeste 37 Oeste 0 -- -- --
2020-06-25 20:00:00 27.8 22 Oeste 39 Oeste 0 -- -- --
2020-06-25 19:00:00 28.2 27 Oeste 42 Oeste 0 -- -- --
2020-06-25 18:00:00 28.8 22 Oeste 37 Oeste 0 -- -- --
2020-06-25 17:00:00 28.6 21 Oeste 41 Oeste 0 -- -- --
2020-06-25 16:00:00 27.9 21 Oeste 39 Oeste 0 -- -- --
2020-06-25 15:00:00 27.5 19 Oeste 37 Sudoeste 0 -- -- --
2020-06-25 14:00:00 26.7 24 Sudoeste 39 Oeste 0 -- -- --
2020-06-25 13:00:00 26 22 Oeste 35 Oeste 0 -- -- --
2020-06-25 12:00:00 25.3 14 Sudoeste 24 Sudoeste 0 -- -- --
2020-06-25 11:00:00 23.5 3 Sudoeste 15 Nordeste 0 -- -- --
2020-06-25 10:00:00 19.9 8 Este 18 Nordeste 0 -- -- --
2020-06-25 09:00:00 17.7 11 Este 22 Nordeste 0 -- -- --
2020-06-25 08:00:00 15.6 8 Este 16 Nordeste 0 -- -- --
2020-06-25 07:00:00 14.3 13 Nordeste 19 Nordeste 0 -- -- --
2020-06-25 06:00:00 15.2 15 Nordeste 19 Este 0 -- -- --
2020-06-25 05:00:00 16.8 10 Nordeste 19 Este 0.2 -- -- --
2020-06-25 04:00:00 16.9 6 Sudeste 23 Este 0 -- -- --
2020-06-25 03:00:00 16.9 21 Nordeste 27 Este 0 -- -- --
2020-06-25 02:00:00 16.4 20 Este 31 Este 0 -- -- --
2020-06-25 01:00:00 16.3 22 Este 28 Nordeste 0 -- -- --
2020-06-25 00:00:00 16.8 19 Nordeste 27 Nordeste 0 -- -- --
2020-06-24 23:00:00 19 22 Nordeste 35 Nordeste 0 -- -- --
2020-06-24 22:00:00 21.3 14 Este 26 Este 0 -- -- --
2020-06-24 21:00:00 21.2 14 Este 22 Este 0 -- -- --
2020-06-24 20:00:00 21.2 15 Este 26 Este 0 -- -- --
2020-06-24 19:00:00 19.9 15 Sudeste 34 Este 0.4 -- -- --
2020-06-24 18:00:00 17.7 18 Norte 33 Este 12.6 -- -- --
2020-06-24 17:00:00 16.2 5 Este 66 Sudeste 27.8 -- -- --
2020-06-24 16:00:00 27.7 16 Este 44 Sudeste 0 -- -- --
2020-06-24 15:00:00 31 8 Sudoeste 23 Sudoeste 0 -- -- --
2020-06-24 14:00:00 30.6 10 Sudoeste 23 Sudoeste 0 -- -- --
2020-06-24 13:00:00 27.7 12 Oeste 22 Oeste 0 -- -- --
2020-06-24 12:00:00 27.7 5 Noroeste 10 Noroeste 0 -- -- --
2020-06-24 11:00:00 24.7 6 Nordeste 12 Nordeste 0 -- -- --
2020-06-24 10:00:00 22 6 Este 14 Nordeste 0 -- -- --
2020-06-24 09:00:00 20.2 5 Nordeste 8 Norte 0 -- -- --
2020-06-24 08:00:00 15.6 8 Este 16 Nordeste 0 -- -- --
2020-06-24 07:00:00 14.8 12 Nordeste 19 Nordeste 0 -- -- --
2020-06-24 06:00:00 14.4 9 Nordeste 11 Nordeste 0 -- -- --
2020-06-24 05:00:00 15.9 5 Este 10 Nordeste 0 -- -- --
2020-06-24 04:00:00 15.4 3 Este 18 Nordeste 0 -- -- --
2020-06-24 03:00:00 16.9 5 Nordeste 9 Nordeste 0 -- -- --
2020-06-24 02:00:00 17.5 0 Calma 12 Este 0 -- -- --
2020-06-24 01:00:00 20 9 Noroeste 19 Noroeste 0 -- -- --
2020-06-24 00:00:00 20.7 8 Nordeste 15 Nordeste 0 -- -- --
2020-06-23 23:00:00 21.8 3 Noroeste 5 Noroeste 0 -- -- --
2020-06-23 22:00:00 26.5 4 Noroeste 10 Noroeste 0 -- -- --
2020-06-23 21:00:00 29.5 8 Noroeste 17 Oeste 0 -- -- --
2020-06-23 20:00:00 31.3 11 Oeste 28 Sudoeste 0 -- -- --
2020-06-23 19:00:00 34.6 14 Oeste 31 Oeste 0 -- -- --
2020-06-23 18:00:00 34.5 16 Sudoeste 27 Sudoeste 0 -- -- --
2020-06-23 17:00:00 34.2 14 Sudoeste 32 Sudoeste 0 -- -- --
2020-06-23 16:00:00 33.3 11 Noroeste 28 Noroeste 0 -- -- --
2020-06-23 15:00:00 33.7 8 Oeste 19 Oeste 0 -- -- --
2020-06-23 14:00:00 32 9 Norte 21 Este 0 -- -- --
2020-06-23 13:00:00 29.7 13 Nordeste 24 Nordeste 0 -- -- --
2020-06-23 12:00:00 26.8 19 Nordeste 31 Nordeste 0 -- -- --
2020-06-23 11:00:00 24 19 Nordeste 36 Nordeste 0 -- -- --
2020-06-23 10:00:00 20.4 23 Nordeste 30 Nordeste 0 -- -- --
2020-06-23 09:00:00 18.4 17 Nordeste 28 Nordeste 0 -- -- --
2020-06-23 08:00:00 15.4 16 Nordeste 23 Nordeste 0 -- -- --
2020-06-23 07:00:00 13.4 16 Nordeste 23 Nordeste 0 -- -- --
2020-06-23 06:00:00 14.2 17 Nordeste 26 Nordeste 0 -- -- --
2020-06-23 05:00:00 14.2 15 Nordeste 19 Nordeste 0 -- -- --
2020-06-23 04:00:00 16.7 14 Nordeste 24 Nordeste 0 -- -- --
2020-06-23 03:00:00 18.1 20 Nordeste 27 Nordeste 0 -- -- --
2020-06-23 02:00:00 18.8 20 Nordeste 30 Este 0 -- -- --
2020-06-23 01:00:00 20.3 19 Este 24 Este 0 -- -- --
2020-06-23 00:00:00 18.5 18 Nordeste 21 Nordeste 0 -- -- --
2020-06-22 23:00:00 18.8 10 Nordeste 13 Nordeste 0 -- -- --
2020-06-22 22:00:00 23.3 10 Nordeste 17 Nordeste 0 -- -- --
2020-06-22 21:00:00 29.7 12 Nordeste 21 Norte 0 -- -- --
2020-06-22 20:00:00 31.4 12 Nordeste 22 Nordeste 0 -- -- --
2020-06-22 19:00:00 32.8 12 Nordeste 26 Norte 0 -- -- --
2020-06-22 18:00:00 31.7 15 Nordeste 33 Nordeste 0 -- -- --
2020-06-22 17:00:00 31.1 8 Noroeste 26 Nordeste 0 -- -- --
2020-06-22 16:00:00 31.7 12 Este 25 Este 0 -- -- --
2020-06-22 15:00:00 30.4 15 Este 35 Nordeste 0 -- -- --
2020-06-22 14:00:00 29 17 Este 33 Este 0 -- -- --
2020-06-22 13:00:00 27.1 22 Este 38 Este 0 -- -- --
2020-06-22 12:00:00 24.3 23 Nordeste 35 Nordeste 0 -- -- --
2020-06-22 11:00:00 21.2 23 Nordeste 34 Nordeste 0 -- -- --
2020-06-22 10:00:00 18.1 24 Nordeste 34 Nordeste 0 -- -- --
2020-06-22 09:00:00 15.4 27 Nordeste 39 Nordeste 0 -- -- --
2020-06-22 08:00:00 13.4 24 Nordeste 32 Nordeste 0 -- -- --
2020-06-22 07:00:00 12.5 21 Nordeste 36 Nordeste 0 -- -- --
2020-06-22 06:00:00 13 22 Nordeste 39 Nordeste 0 -- -- --
2020-06-22 05:00:00 13.7 25 Nordeste 38 Nordeste 0 -- -- --
2020-06-22 04:00:00 14.7 26 Nordeste 37 Nordeste 0 -- -- --
2020-06-22 03:00:00 15.6 27 Nordeste 37 Nordeste 0 -- -- --
2020-06-22 02:00:00 17 26 Nordeste 39 Nordeste 0 -- -- --
2020-06-22 01:00:00 17.5 12 Norte 15 Norte 0 -- -- --
2020-06-22 00:00:00 18.6 3 Noroeste 14 Noroeste 0 -- -- --
2020-06-21 23:00:00 20.5 8 Noroeste 17 Noroeste 0 -- -- --
2020-06-21 22:00:00 22.8 10 Noroeste 30 Noroeste 0 -- -- --
2020-06-21 21:00:00 26 19 Oeste 34 Oeste 0 -- -- --
2020-06-21 20:00:00 27.6 17 Oeste 27 Oeste 0 -- -- --
2020-06-21 19:00:00 28.9 12 Noroeste 37 Sudoeste 0 -- -- --
2020-06-21 18:00:00 28.4 14 Oeste 35 Oeste 0 -- -- --
2020-06-21 17:00:00 28.1 10 Oeste 24 Oeste 0 -- -- --
2020-06-21 16:00:00 27.3 10 Noroeste 24 Noroeste 0 -- -- --
2020-06-21 15:00:00 26.6 9 Noroeste 22 Noroeste 0 -- -- --
2020-06-21 14:00:00 24.2 12 Oeste 27 Oeste 0 -- -- --
2020-06-21 13:00:00 23.2 10 Noroeste 23 Oeste 0 -- -- --
2020-06-21 12:00:00 20.9 11 Noroeste 27 Noroeste 0 -- -- --
2020-06-21 11:00:00 18.8 12 Oeste 30 Noroeste 0 -- -- --
2020-06-21 10:00:00 16.7 16 Oeste 21 Sudoeste 0 -- -- --
2020-06-21 09:00:00 14.5 12 Sudoeste 16 Oeste 0 -- -- --
2020-06-21 08:00:00 11.2 8 Sudoeste 12 Sudoeste 0 -- -- --
2020-06-21 07:00:00 8.1 9 Sudoeste 12 Sudoeste 0 -- -- --
2020-06-21 06:00:00 9.7 7 Sudoeste 12 Sur 0 -- -- --
2020-06-21 05:00:00 11.1 5 Sur 14 Sudoeste 0 -- -- --
2020-06-21 04:00:00 12.4 9 Oeste 13 Oeste 0 -- -- --
2020-06-21 03:00:00 13.9 10 Oeste 17 Oeste 0 -- -- --
2020-06-21 02:00:00 15.2 13 Oeste 21 Oeste 0 -- -- --
2020-06-21 01:00:00 15.9 14 Oeste 17 Oeste 0 -- -- --
2020-06-21 00:00:00 16.5 9 Oeste 17 Oeste 0 -- -- --
2020-06-20 23:00:00 18.8 12 Noroeste 17 Noroeste 0 -- -- --
2020-06-20 22:00:00 21.3 10 Noroeste 27 Noroeste 0 -- -- --
2020-06-20 21:00:00 25.1 18 Oeste 29 Oeste 0 -- -- --
2020-06-20 20:00:00 26.5 20 Oeste 33 Oeste 0 -- -- --
2020-06-20 19:00:00 26.9 18 Oeste 34 Sudoeste 0 -- -- --
2020-06-20 18:00:00 27.2 16 Oeste 41 Oeste 0 -- -- --
2020-06-20 17:00:00 26.7 22 Oeste 37 Oeste 0 -- -- --
2020-06-20 16:00:00 26.3 16 Oeste 30 Oeste 0 -- -- --
2020-06-20 15:00:00 25.1 12 Oeste 28 Oeste 0 -- -- --
2020-06-20 14:00:00 25 9 Sudoeste 20 Sudoeste 0 -- -- --
2020-06-20 13:00:00 23.8 9 Sudoeste 22 Sudoeste 0 -- -- --
2020-06-20 12:00:00 22.5 8 Noroeste 17 Noroeste 0 -- -- --
2020-06-20 11:00:00 20.9 4 Norte 10 Noroeste 0 -- -- --
2020-06-20 10:00:00 18.8 4 Norte 8 Norte 0 -- -- --
2020-06-20 09:00:00 15.1 3 Oeste 7 Sudoeste 0 -- -- --
2020-06-20 08:00:00 11.7 0 Calma 7 Sudeste 0 -- -- --
2020-06-20 07:00:00 7.7 4 Sudeste 8 Sudoeste 0 -- -- --
2020-06-20 06:00:00 8.4 0 Calma 7 Sudoeste 0 -- -- --
2020-06-20 05:00:00 11.4 2 Nordeste 10 Sudeste 0 -- -- --
2020-06-20 04:00:00 11 3 Sudoeste 10 Oeste 0 -- -- --
2020-06-20 03:00:00 12.7 6 Oeste 9 Oeste 0 -- -- --
2020-06-20 02:00:00 13.1 2 Norte 12 Oeste 0 -- -- --
2020-06-20 01:00:00 12.3 0 Calma 7 Oeste 0 -- -- --
2020-06-20 00:00:00 16.6 6 Oeste 13 Oeste 0 -- -- --
2020-06-19 23:00:00 18.8 11 Oeste 20 Oeste 0 -- -- --
2020-06-19 22:00:00 20.1 13 Oeste 19 Oeste 0 -- -- --
2020-06-19 21:00:00 23.6 16 Oeste 26 Oeste 0 -- -- --
2020-06-19 20:00:00 24.8 17 Oeste 35 Oeste 0 -- -- --
2020-06-19 19:00:00 24.9 21 Oeste 32 Oeste 0 -- -- --
2020-06-19 18:00:00 25.2 19 Oeste 34 Oeste 0 -- -- --
2020-06-19 17:00:00 24.8 17 Oeste 30 Oeste 0 -- -- --
2020-06-19 16:00:00 24.1 12 Oeste 27 Oeste 0 -- -- --
2020-06-19 15:00:00 22.7 15 Oeste 27 Oeste 0 -- -- --
2020-06-19 14:00:00 22.2 14 Oeste 33 Oeste 0 -- -- --
2020-06-19 13:00:00 20.8 13 Oeste 25 Oeste 0 -- -- --
2020-06-19 12:00:00 19.4 9 Oeste 19 Oeste 0 -- -- --
2020-06-19 11:00:00 18.1 5 Norte 10 Norte 0 -- -- --
2020-06-19 10:00:00 15 4 Noroeste 9 Nordeste 0 -- -- --
2020-06-19 09:00:00 13 6 Norte 9 Nordeste 0 -- -- --
2020-06-19 08:00:00 9.4 0 Calma 8 Noroeste 0 -- -- --
2020-06-19 07:00:00 5.2 0 Calma 4 Sudoeste 0 -- -- --
2020-06-19 06:00:00 6.3 4 Sur 6 Sudeste 0 -- -- --
2020-06-19 05:00:00 6.4 3 Este 12 Oeste 0 -- -- --
2020-06-19 04:00:00 9.2 5 Noroeste 10 Noroeste 0 -- -- --
2020-06-19 03:00:00 8.2 7 Nordeste 11 Nordeste 0 -- -- --
2020-06-19 02:00:00 9.7 3 Este 7 Noroeste 0 -- -- --
2020-06-19 01:00:00 12.4 4 Noroeste 10 Noroeste 0 -- -- --
2020-06-19 00:00:00 13.5 9 Oeste 16 Oeste 0 -- -- --
2020-06-18 23:00:00 15.6 10 Noroeste 16 Oeste 0 -- -- --
2020-06-18 22:00:00 18.3 13 Oeste 21 Noroeste 0 -- -- --
2020-06-18 21:00:00 21.9 15 Noroeste 30 Oeste 0 -- -- --
2020-06-18 20:00:00 22.6 19 Oeste 28 Oeste 0 -- -- --
2020-06-18 19:00:00 23.2 18 Oeste 30 Oeste 0 -- -- --
2020-06-18 18:00:00 23.8 9 Noroeste 31 Oeste 0 -- -- --
2020-06-18 17:00:00 23.3 15 Oeste 33 Oeste 0 -- -- --
2020-06-18 16:00:00 21.7 9 Oeste 24 Oeste 0 -- -- --
2020-06-18 15:00:00 20.7 8 Oeste 23 Sudoeste 0 -- -- --
2020-06-18 14:00:00 20.8 9 Nordeste 21 Noroeste 0 -- -- --
2020-06-18 13:00:00 20.1 7 Sur 17 Oeste 0 -- -- --
2020-06-18 12:00:00 19.1 6 Sudeste 18 Nordeste 0 -- -- --
2020-06-18 11:00:00 16.3 11 Nordeste 23 Nordeste 0 -- -- --
2020-06-18 10:00:00 14 15 Nordeste 23 Nordeste 0 -- -- --
2020-06-18 09:00:00 12.1 12 Nordeste 21 Nordeste 0 -- -- --
2020-06-18 08:00:00 10 8 Nordeste 15 Nordeste 0 -- -- --
2020-06-18 07:00:00 7.7 0 Calma 14 Nordeste 0 -- -- --
2020-06-18 06:00:00 8.4 8 Norte 10 Norte 0 -- -- --
2020-06-18 05:00:00 7.9 2 Norte 6 Norte 0 -- -- --
2020-06-18 04:00:00 8.5 0 Calma 10 Nordeste 0 -- -- --
2020-06-18 03:00:00 11.1 7 Norte 19 Norte 0 -- -- --
2020-06-18 02:00:00 10.6 7 Nordeste 14 Nordeste 0 -- -- --
2020-06-18 01:00:00 13.5 6 Norte 10 Norte 0 -- -- --
2020-06-18 00:00:00 14.9 7 Norte 18 Noroeste 0 -- -- --
2020-06-17 23:00:00 16 8 Noroeste 17 Noroeste 0 -- -- --
2020-06-17 22:00:00 17.6 14 Noroeste 22 Oeste 0 -- -- --
2020-06-17 21:00:00 18.7 17 Oeste 30 Oeste 0 -- -- --
2020-06-17 20:00:00 21.2 17 Oeste 27 Oeste 0 -- -- --
2020-06-17 19:00:00 20 14 Oeste 26 Oeste 0 -- -- --
2020-06-17 18:00:00 21.1 11 Oeste 24 Noroeste 0 -- -- --
2020-06-17 17:00:00 21.6 9 Oeste 29 Noroeste 0 -- -- --
2020-06-17 16:00:00 20.4 17 Oeste 27 Oeste 0 -- -- --
2020-06-17 15:00:00 20.4 6 Sur 18 Norte 0 -- -- --
2020-06-17 14:00:00 18.4 5 Norte 18 Norte 0 -- -- --
2020-06-17 13:00:00 19.3 5 Noroeste 17 Este 0 -- -- --
2020-06-17 12:00:00 18.4 5 Noroeste 15 Nordeste 0 -- -- --
2020-06-17 11:00:00 15.9 8 Nordeste 17 Nordeste 0 -- -- --
2020-06-17 10:00:00 14.1 4 Nordeste 12 Noroeste 0 -- -- --
2020-06-17 09:00:00 11.1 6 Oeste 12 Oeste 0 -- -- --
2020-06-17 08:00:00 8.8 3 Oeste 8 Oeste 0 -- -- --
2020-06-17 07:00:00 6.4 3 Sur 8 Sudoeste 0 -- -- --
2020-06-17 06:00:00 6.8 6 Sudoeste 9 Oeste 0 -- -- --
2020-06-17 05:00:00 7.6 6 Sudoeste 12 Oeste 0 -- -- --
2020-06-17 04:00:00 7.9 4 Sudoeste 14 Noroeste 0 -- -- --
2020-06-17 03:00:00 9.3 12 Oeste 15 Oeste 0 -- -- --
2020-06-17 02:00:00 10.2 4 Sudoeste 19 Oeste 0 -- -- --
2020-06-17 01:00:00 10.6 9 Noroeste 25 Oeste 0 -- -- --
2020-06-17 00:00:00 12.2 19 Oeste 24 Oeste 0 -- -- --
2020-06-16 23:00:00 13.1 14 Oeste 20 Oeste 0 -- -- --
2020-06-16 22:00:00 15.1 12 Noroeste 31 Noroeste 0 -- -- --
2020-06-16 21:00:00 18 19 Noroeste 37 Oeste 0 -- -- --
2020-06-16 20:00:00 18.8 28 Oeste 41 Oeste 0 -- -- --
2020-06-16 19:00:00 19.5 29 Oeste 43 Oeste 0 -- -- --
2020-06-16 18:00:00 20.2 29 Oeste 57 Oeste 0 -- -- --
2020-06-16 17:00:00 19.6 33 Oeste 61 Oeste 0 -- -- --
2020-06-16 16:00:00 18.1 30 Oeste 45 Oeste 0 -- -- --
2020-06-16 15:00:00 18.5 27 Oeste 43 Oeste 0 -- -- --
2020-06-16 14:00:00 18.5 24 Oeste 38 Oeste 0 -- -- --
2020-06-16 13:00:00 18.5 23 Oeste 36 Oeste 0 -- -- --
2020-06-16 12:00:00 17.6 17 Oeste 32 Sudoeste 0 -- -- --
2020-06-16 11:00:00 16.5 13 Oeste 27 Oeste 0 -- -- --
2020-06-16 10:00:00 14.8 14 Oeste 23 Oeste 0 -- -- --
2020-06-16 09:00:00 13.2 10 Sudoeste 19 Sudoeste 0 -- -- --
2020-06-16 08:00:00 11.4 8 Sudoeste 12 Sudoeste 0 -- -- --
2020-06-16 07:00:00 10.3 4 Sudoeste 15 Oeste 0 -- -- --
2020-06-16 06:00:00 10.9 14 Oeste 18 Oeste 0 -- -- --
2020-06-16 05:00:00 11.3 10 Oeste 17 Oeste 0 -- -- --
2020-06-16 04:00:00 11.7 14 Oeste 21 Oeste 0 -- -- --
2020-06-16 03:00:00 11.9 11 Oeste 18 Oeste 0 -- -- --
2020-06-16 02:00:00 12.2 13 Oeste 21 Oeste 0 -- -- --
2020-06-16 01:00:00 12.8 14 Oeste 21 Noroeste 0 -- -- --
2020-06-16 00:00:00 13.2 12 Oeste 22 Oeste 0 -- -- --
2020-06-15 23:00:00 13.8 17 Oeste 24 Oeste 0 -- -- --
2020-06-15 22:00:00 14.4 19 Oeste 28 Noroeste 0 -- -- --
2020-06-15 21:00:00 15.1 21 Oeste 40 Oeste 0 -- -- --
2020-06-15 20:00:00 15.9 19 Noroeste 39 Oeste 0 -- -- --
2020-06-15 19:00:00 16.6 27 Oeste 39 Oeste 0 -- -- --
2020-06-15 18:00:00 18.3 26 Oeste 41 Oeste 0 -- -- --
2020-06-15 17:00:00 19.1 24 Oeste 39 Oeste 0 -- -- --
2020-06-15 16:00:00 19.9 18 Oeste 37 Oeste 0 -- -- --
2020-06-15 15:00:00 19.4 20 Oeste 36 Oeste 0 -- -- --
2020-06-15 14:00:00 18.2 15 Oeste 28 Oeste 0 -- -- --
2020-06-15 13:00:00 17.5 12 Sudoeste 25 Oeste 0 -- -- --
2020-06-15 12:00:00 16.7 8 Sudoeste 22 Oeste 0 -- -- --
2020-06-15 11:00:00 15.4 7 Noroeste 17 Oeste 0 -- -- --
2020-06-15 10:00:00 14.2 7 Noroeste 15 Oeste 0 -- -- --
2020-06-15 09:00:00 12 10 Oeste 15 Oeste 0 -- -- --
2020-06-15 08:00:00 10.8 6 Oeste 10 Oeste 0 -- -- --
2020-06-15 07:00:00 9.9 9 Oeste 10 Oeste 0 -- -- --
2020-06-15 06:00:00 10 9 Oeste 10 Oeste 0 -- -- --
2020-06-15 05:00:00 9.2 3 Oeste 9 Oeste 0 -- -- --
2020-06-15 04:00:00 9 3 Sur 5 Oeste 0 -- -- --
2020-06-15 03:00:00 9.9 3 Sudoeste 11 Oeste 0 -- -- --
2020-06-15 02:00:00 11.2 4 Sudoeste 11 Oeste 0 -- -- --
2020-06-15 01:00:00 11.8 9 Oeste 13 Oeste 0 -- -- --
2020-06-15 00:00:00 12.2 0 Calma 15 Noroeste 0 -- -- --
2020-06-14 23:00:00 13.2 10 Noroeste 23 Oeste 0 -- -- --
2020-06-14 22:00:00 14.8 15 Noroeste 29 Oeste 0 -- -- --
2020-06-14 21:00:00 16.1 15 Noroeste 29 Noroeste 0 -- -- --
2020-06-14 20:00:00 17.2 18 Noroeste 34 Noroeste 0 -- -- --
2020-06-14 19:00:00 18.4 19 Oeste 35 Oeste 0 -- -- --
2020-06-14 18:00:00 18.8 17 Oeste 34 Oeste 0 -- -- --
2020-06-14 17:00:00 18.5 18 Oeste 31 Oeste 0 -- -- --
2020-06-14 16:00:00 19 15 Oeste 37 Oeste 0 -- -- --
2020-06-14 15:00:00 18.1 16 Oeste 35 Oeste 0 -- -- --
2020-06-14 14:00:00 17 18 Oeste 31 Oeste 0 -- -- --
2020-06-14 13:00:00 16.5 13 Oeste 25 Oeste 0 -- -- --
2020-06-14 12:00:00 15.2 15 Oeste 24 Oeste 0 -- -- --
2020-06-14 11:00:00 14.7 11 Sudoeste 18 Sudoeste 0 -- -- --
2020-06-14 10:00:00 13.2 9 Sudoeste 13 Sur 0 -- -- --
2020-06-14 09:00:00 10.2 6 Sudoeste 9 Sur 0 -- -- --
2020-06-14 08:00:00 7.2 3 Sur 5 Sur 0 -- -- --
2020-06-14 07:00:00 4.5 3 Sur 5 Sur 0 -- -- --
2020-06-14 06:00:00 4.7 5 Sudeste 7 Sur 0 -- -- --
2020-06-14 05:00:00 4.1 7 Sudeste 8 Sudeste 0 -- -- --
2020-06-14 04:00:00 4.8 2 Sur 8 Sudoeste 0 -- -- --
2020-06-14 03:00:00 6.7 4 Oeste 17 Oeste 0 -- -- --
2020-06-14 02:00:00 7.4 5 Oeste 11 Noroeste 0 -- -- --
2020-06-14 01:00:00 9.1 8 Noroeste 12 Oeste 0 -- -- --
2020-06-14 00:00:00 10.5 10 Oeste 17 Oeste 0 -- -- --
2020-06-13 23:00:00 11.3 13 Oeste 15 Oeste 0 -- -- --
2020-06-13 22:00:00 12.9 12 Oeste 24 Oeste 0 -- -- --
2020-06-13 21:00:00 15.9 15 Oeste 41 Oeste 0 -- -- --
2020-06-13 20:00:00 15.9 18 Oeste 38 Oeste 0 -- -- --
2020-06-13 19:00:00 16.6 29 Oeste 42 Oeste 0 -- -- --
2020-06-13 18:00:00 17.6 23 Oeste 41 Oeste 0 -- -- --
2020-06-13 17:00:00 16.7 17 Noroeste 43 Oeste 0 -- -- --
2020-06-13 16:00:00 16.4 21 Sudoeste 40 Oeste 0 -- -- --
2020-06-13 15:00:00 15.7 26 Oeste 45 Oeste 0 -- -- --
2020-06-13 14:00:00 14.5 22 Oeste 35 Oeste 0 -- -- --
2020-06-13 13:00:00 15.4 23 Oeste 35 Oeste 0 -- -- --
2020-06-13 12:00:00 13.9 22 Oeste 36 Sudoeste 0 -- -- --
2020-06-13 11:00:00 12.9 19 Sudoeste 31 Oeste 0 -- -- --
2020-06-13 10:00:00 11.1 19 Oeste 27 Oeste 0 -- -- --
2020-06-13 09:00:00 9.8 16 Sudoeste 29 Sudoeste 0 -- -- --
2020-06-13 08:00:00 8.1 15 Sudoeste 24 Sudoeste 0 -- -- --
2020-06-13 07:00:00 6.6 10 Sudoeste 18 Sudoeste 0 -- -- --
2020-06-13 06:00:00 5.7 12 Sudoeste 15 Sudoeste 0 -- -- --
2020-06-13 05:00:00 6.1 6 Sudoeste 22 Sudoeste 0 -- -- --
2020-06-13 04:00:00 7.5 16 Sudoeste 21 Sudoeste 0 -- -- --
2020-06-13 03:00:00 8.2 15 Sudoeste 35 Sudoeste 0 -- -- --
2020-06-13 02:00:00 9.2 17 Oeste 33 Oeste 0 -- -- --
2020-06-13 01:00:00 10.1 18 Oeste 32 Sudoeste 0 -- -- --
2020-06-13 00:00:00 10.3 19 Oeste 33 Oeste 0 -- -- --
2020-06-12 23:00:00 10.3 18 Oeste 36 Oeste 0 -- -- --
2020-06-12 22:00:00 10.8 19 Oeste 41 Oeste 0 -- -- --
2020-06-12 21:00:00 11.7 30 Oeste 47 Oeste 0 -- -- --
2020-06-12 20:00:00 13.4 33 Oeste 51 Sudoeste 0 -- -- --
2020-06-12 19:00:00 14.6 33 Oeste 51 Sudoeste 0 -- -- --
2020-06-12 18:00:00 13.6 30 Sudoeste 52 Sudoeste 0 -- -- --
2020-06-12 17:00:00 14.3 31 Sudoeste 49 Oeste 0 -- -- --
2020-06-12 16:00:00 13.5 27 Oeste 45 Oeste 0.2 -- -- --
2020-06-12 15:00:00 12.2 23 Oeste 53 Oeste 0.2 -- -- --
2020-06-12 14:00:00 12.5 26 Oeste 50 Sudoeste 1.6 -- -- --
2020-06-12 13:00:00 13.1 31 Sudoeste 46 Sudoeste 0 -- -- --
2020-06-12 12:00:00 12.1 32 Sudoeste 45 Sudoeste 0 -- -- --
2020-06-12 11:00:00 10.9 31 Sudoeste 53 Sudoeste 0 -- -- --
2020-06-12 10:00:00 9.8 30 Sudoeste 44 Sudoeste 0.2 -- -- --
2020-06-12 09:00:00 8.7 25 Sudoeste 41 Sudoeste 0 -- -- --
2020-06-12 08:00:00 8.5 25 Sudoeste 41 Sudoeste 0 -- -- --
2020-06-12 07:00:00 8.3 26 Sudoeste 40 Sudoeste 0 -- -- --
2020-06-12 06:00:00 8.4 28 Sudoeste 42 Sudoeste 0 -- -- --
2020-06-12 05:00:00 8.2 26 Sudoeste 40 Sudoeste 0 -- -- --
2020-06-12 04:00:00 8.3 24 Sudoeste 47 Sudoeste 0 -- -- --
2020-06-12 03:00:00 8.7 28 Sudoeste 44 Sudoeste 0 -- -- --
2020-06-12 02:00:00 9 24 Sudoeste 33 Sudoeste 0 -- -- --
2020-06-12 01:00:00 8.5 24 Oeste 38 Oeste 0 -- -- --
2020-06-12 00:00:00 9.6 23 Oeste 40 Oeste 0 -- -- --